Time;durP1;ratioP1;P1;durP2;ratioP2;P2;SDS_P1;SDS_P2;PMS_P1;PMS_P2;Temp;Humidity;BMP_temperature;BMP_pressure;BME280_temperature;BME280_humidity;BME280_pressure;Samples;Min_cycle;Max_cycle;Signal;HPM_P1;HPM_P2
2023/03/03 00:01:31;;;;;;;33.67;15.80;;;1.90;99.90;;;;;;6217355;23;20007;-86
2023/03/03 00:03:58;;;;;;;36.40;16.73;;;1.90;99.90;;;;;;6216087;23;20012;-86
2023/03/03 00:06:24;;;;;;;41.85;18.30;;;1.90;99.90;;;;;;6217132;23;20004;-86
2023/03/03 00:08:50;;;;;;;39.30;18.63;;;2.00;99.90;;;;;;6243806;23;20011;-86
2023/03/03 00:11:16;;;;;;;45.80;18.83;;;2.00;99.90;;;;;;6216110;23;20004;-86
2023/03/03 00:13:54;;;;;;;39.17;16.75;;;2.00;99.90;;;;;;6216845;23;20015;-85
2023/03/03 00:16:29;;;;;;;37.88;17.85;;;2.00;99.90;;;;;;6216711;23;20019;-85
2023/03/03 00:18:55;;;;;;;41.17;17.85;;;2.00;99.90;;;;;;6216067;23;20008;-85
2023/03/03 00:21:28;;;;;;;43.05;18.70;;;2.00;99.90;;;;;;6215659;23;20024;-85
2023/03/03 00:24:13;;;;;;;;;;;2.00;99.90;;;;;;6244062;23;20003;-85
2023/03/03 00:26:44;;;;;;;35.83;16.15;;;2.00;99.90;;;;;;6216117;23;19899;-85
2023/03/03 00:29:34;;;;;;;34.38;15.75;;;2.00;99.90;;;;;;6215961;23;20008;-85
2023/03/03 00:32:14;;;;;;;42.83;18.88;;;2.00;99.90;;;;;;6215807;23;20007;-86
2023/03/03 00:34:41;;;;;;;38.50;17.77;;;2.10;99.90;;;;;;6216691;23;20000;-85
2023/03/03 00:37:29;;;;;;;39.90;16.65;;;2.10;99.90;;;;;;6216496;23;20123;-85
2023/03/03 00:40:29;;;;;;;42.00;18.75;;;2.00;99.90;;;;;;6217052;23;20008;-85
2023/03/03 00:42:58;;;;;;;44.33;19.77;;;2.00;99.90;;;;;;6200260;23;20004;-85
2023/03/03 00:45:43;;;;;;;38.95;18.13;;;1.90;99.90;;;;;;6216674;23;20007;-86
2023/03/03 00:48:25;;;;;;;42.45;19.23;;;1.90;99.90;;;;;;6216440;23;20004;-85
2023/03/03 00:50:59;;;;;;;41.67;18.90;;;1.90;99.90;;;;;;6217033;23;20330;-85
2023/03/03 00:53:28;;;;;;;38.25;18.95;;;1.90;99.90;;;;;;6217062;23;20118;-85
2023/03/03 00:55:54;;;;;;;41.85;18.10;;;1.80;99.90;;;;;;6218528;23;20031;-85
2023/03/03 00:58:20;;;;;;;42.80;19.38;;;1.80;99.90;;;;;;6243778;22;20347;-85
2023/03/03 01:00:48;;;;;;;45.00;19.00;;;1.80;99.90;;;;;;6244381;23;20090;-85
2023/03/03 01:03:23;;;;;;;41.47;19.42;;;1.80;99.90;;;;;;6243768;23;20008;-85
2023/03/03 01:05:49;;;;;;;41.40;18.73;;;1.70;99.90;;;;;;6244194;23;20004;-85
2023/03/03 01:08:15;;;;;;;45.92;20.80;;;1.60;99.90;;;;;;6217551;23;20008;-85
2023/03/03 01:10:50;;;;;;;46.08;19.45;;;1.60;99.90;;;;;;6244233;23;20004;-85
2023/03/03 01:13:16;;;;;;;46.55;20.10;;;1.50;99.90;;;;;;6217463;23;20067;-85
2023/03/03 01:15:42;;;;;;;50.75;21.17;;;1.50;99.90;;;;;;6217351;23;20007;-85
2023/03/03 01:18:10;;;;;;;47.60;20.13;;;1.40;99.90;;;;;;6216473;23;20015;-85
2023/03/03 01:20:36;;;;;;;44.22;19.55;;;1.40;99.90;;;;;;6216973;23;20012;-85
2023/03/03 01:23:02;;;;;;;43.60;19.77;;;1.40;99.90;;;;;;6215960;23;20427;-85
2023/03/03 01:25:28;;;;;;;46.30;19.67;;;1.40;99.90;;;;;;6218410;23;20091;-85
2023/03/03 01:27:55;;;;;;;44.60;19.10;;;1.40;99.90;;;;;;6243861;23;20030;-85
2023/03/03 01:30:20;;;;;;;46.10;19.05;;;1.40;99.90;;;;;;6243467;23;20310;-85
2023/03/03 01:32:46;;;;;;;45.30;19.80;;;1.30;99.90;;;;;;6217477;23;20349;-85
2023/03/03 01:35:12;;;;;;;45.33;18.17;;;1.40;99.90;;;;;;6216478;23;20000;-85
2023/03/03 01:37:37;;;;;;;48.97;20.83;;;1.40;99.90;;;;;;6216772;23;20004;-85
2023/03/03 01:40:07;;;;;;;45.50;20.02;;;1.40;99.90;;;;;;6243606;23;20030;-85
2023/03/03 01:42:32;;;;;;;44.13;19.20;;;1.40;99.90;;;;;;6217180;23;19996;-85
2023/03/03 01:45:13;;;;;;;45.15;19.27;;;1.40;99.90;;;;;;6217914;23;20004;-85
2023/03/03 01:47:41;;;;;;;43.20;19.63;;;1.40;99.90;;;;;;6219443;23;20446;-85
2023/03/03 01:50:13;;;;;;;46.92;20.38;;;1.40;99.90;;;;;;6218022;23;20000;-86
2023/03/03 01:52:41;;;;;;;42.20;18.10;;;1.40;99.90;;;;;;6218720;23;20016;-86
2023/03/03 01:55:21;;;;;;;47.53;18.75;;;1.30;99.90;;;;;;6218650;23;20498;-85
2023/03/03 01:57:56;;;;;;;43.15;19.00;;;1.30;99.90;;;;;;6245335;22;20000;-86
2023/03/03 02:00:22;;;;;;;40.67;18.02;;;1.30;99.90;;;;;;6218525;23;20016;-85
2023/03/03 02:02:48;;;;;;;44.67;17.83;;;1.30;99.90;;;;;;6219465;23;20442;-85
2023/03/03 02:05:14;;;;;;;48.88;18.83;;;1.30;99.90;;;;;;6219135;23;20008;-85
2023/03/03 02:07:40;;;;;;;47.78;20.75;;;1.30;99.90;;;;;;6218502;23;20083;-85
2023/03/03 02:10:13;;;;;;;46.20;19.38;;;1.30;99.90;;;;;;6218666;23;20038;-84
2023/03/03 02:12:48;;;;;;;41.17;17.17;;;1.30;99.90;;;;;;6219395;23;20004;-84
2023/03/03 02:15:26;;;;;;;38.80;16.75;;;1.40;99.90;;;;;;6219037;23;20338;-84
2023/03/03 02:17:57;;;;;;;42.65;18.80;;;1.30;99.90;;;;;;6218548;23;20004;-84
2023/03/03 02:20:39;;;;;;;44.53;17.48;;;1.30;99.90;;;;;;6218144;23;20012;-85
2023/03/03 02:23:25;;;;;;;44.97;18.95;;;1.40;99.90;;;;;;6218660;23;20011;-84
2023/03/03 02:25:57;;;;;;;43.95;18.15;;;1.40;99.90;;;;;;6219091;23;20004;-84
2023/03/03 02:28:26;;;;;;;46.83;18.17;;;1.30;99.90;;;;;;6218352;23;20138;-84
2023/03/03 02:30:54;;;;;;;40.22;17.27;;;1.40;99.90;;;;;;6245149;23;20027;-84
2023/03/03 02:33:19;;;;;;;37.08;16.17;;;1.40;99.90;;;;;;6218658;23;20018;-84
2023/03/03 02:35:45;;;;;;;41.30;17.45;;;1.40;99.90;;;;;;6219557;23;20020;-85
2023/03/03 02:38:20;;;;;;;42.63;18.27;;;1.40;99.90;;;;;;6244833;23;20011;-84
2023/03/03 02:41:09;;;;;;;43.97;18.48;;;1.30;99.90;;;;;;6218791;23;20008;-84
2023/03/03 02:44:01;;;;;;;34.97;16.83;;;1.40;99.90;;;;;;6219039;23;20004;-84
2023/03/03 02:46:31;;;;;;;38.13;16.52;;;1.40;99.90;;;;;;6218833;23;19996;-84
2023/03/03 02:48:57;;;;;;;39.88;18.90;;;1.30;99.90;;;;;;6218119;23;19996;-84
2023/03/03 02:51:22;;;;;;;39.88;16.10;;;1.30;99.90;;;;;;6218277;23;20007;-84
2023/03/03 02:53:48;;;;;;;41.47;16.70;;;1.30;99.90;;;;;;6245274;23;20438;-84
2023/03/03 02:56:14;;;;;;;38.33;17.80;;;1.30;99.90;;;;;;6217315;23;19993;-84
2023/03/03 02:58:40;;;;;;;34.35;15.70;;;1.30;99.90;;;;;;6217703;23;20067;-83
2023/03/03 03:01:05;;;;;;;34.08;14.65;;;1.30;99.90;;;;;;6244608;23;20006;-84
2023/03/03 03:03:31;;;;;;;35.05;15.43;;;1.30;99.90;;;;;;6244975;23;20008;-84
2023/03/03 03:05:57;;;;;;;36.47;16.10;;;1.40;99.90;;;;;;6218747;23;20079;-84
2023/03/03 03:08:22;;;;;;;34.80;15.80;;;1.40;99.90;;;;;;6244438;23;20015;-84
2023/03/03 03:10:48;;;;;;;33.70;15.43;;;1.40;99.90;;;;;;6217522;23;20139;-84
2023/03/03 03:13:13;;;;;;;38.88;17.48;;;1.40;99.90;;;;;;6217885;23;20012;-84
2023/03/03 03:15:39;;;;;;;45.47;17.80;;;1.40;99.90;;;;;;6218274;23;20485;-84
2023/03/03 03:18:06;;;;;;;42.95;17.00;;;1.50;99.90;;;;;;6217983;23;20004;-84
2023/03/03 03:20:34;;;;;;;40.72;16.95;;;1.50;99.90;;;;;;6217520;23;20044;-84
2023/03/03 03:23:00;;;;;;;43.00;16.55;;;1.50;99.90;;;;;;6217649;23;20066;-84
2023/03/03 03:25:25;;;;;;;38.55;16.88;;;1.60;99.90;;;;;;6244962;23;19992;-84
2023/03/03 03:27:51;;;;;;;39.28;16.90;;;1.60;99.90;;;;;;6218697;23;20087;-84
2023/03/03 03:30:19;;;;;;;44.63;19.02;;;1.60;99.90;;;;;;6218089;23;20083;-84
2023/03/03 03:32:45;;;;;;;47.92;18.00;;;1.60;99.90;;;;;;6218043;23;20016;-84
2023/03/03 03:35:10;;;;;;;41.38;15.88;;;1.60;99.90;;;;;;6217666;23;20426;-84
2023/03/03 03:37:36;;;;;;;41.70;17.58;;;1.60;99.90;;;;;;6217541;23;20097;-85
2023/03/03 03:40:02;;;;;;;44.15;18.67;;;1.60;99.90;;;;;;6217428;23;20028;-84
2023/03/03 03:42:27;;;;;;;45.75;17.75;;;1.70;99.90;;;;;;6217388;23;20050;-84
2023/03/03 03:44:53;;;;;;;48.75;19.17;;;1.70;99.90;;;;;;6218244;23;20011;-85
2023/03/03 03:47:19;;;;;;;49.00;20.27;;;1.70;99.90;;;;;;6217807;23;20008;-85
2023/03/03 03:49:44;;;;;;;45.25;18.45;;;1.70;99.90;;;;;;6244733;23;19996;-83
2023/03/03 03:52:10;;;;;;;45.97;18.45;;;1.80;99.90;;;;;;6216480;23;20019;-84
2023/03/03 03:54:35;;;;;;;46.50;19.58;;;1.70;99.90;;;;;;6218229;23;20481;-84
2023/03/03 03:57:01;;;;;;;42.10;18.95;;;1.70;99.90;;;;;;6244724;23;20003;-84
2023/03/03 03:59:27;;;;;;;50.58;18.98;;;1.80;99.90;;;;;;6244333;22;20008;-84
2023/03/03 04:01:52;;;;;;;44.80;18.38;;;1.70;99.90;;;;;;6217565;23;19996;-84
2023/03/03 04:04:18;;;;;;;39.83;16.17;;;1.70;99.90;;;;;;6217241;23;20004;-84
2023/03/03 04:06:43;;;;;;;41.13;17.13;;;1.70;99.90;;;;;;6218046;23;20011;-84
2023/03/03 04:09:10;;;;;;;43.28;17.85;;;1.70;99.90;;;;;;6215739;23;20058;-84
2023/03/03 04:11:35;;;;;;;45.78;17.52;;;1.70;99.90;;;;;;6217211;23;20334;-84
2023/03/03 04:14:01;;;;;;;41.50;16.63;;;1.70;99.90;;;;;;6217681;23;20019;-84
2023/03/03 04:16:26;;;;;;;37.00;15.57;;;1.70;99.90;;;;;;6217096;23;20000;-84
2023/03/03 04:18:52;;;;;;;38.55;15.65;;;1.70;99.90;;;;;;6216935;23;20004;-85
2023/03/03 04:21:17;;;;;;;37.00;15.73;;;1.70;99.90;;;;;;6217475;23;20012;-84
2023/03/03 04:23:43;;;;;;;38.10;16.00;;;1.70;99.90;;;;;;6217579;23;20004;-84
2023/03/03 04:26:09;;;;;;;45.38;16.23;;;1.70;99.90;;;;;;6217369;23;20000;-84
2023/03/03 04:28:34;;;;;;;42.42;16.55;;;1.70;99.90;;;;;;6217614;23;20451;-85
2023/03/03 04:31:00;;;;;;;43.20;17.25;;;1.70;99.90;;;;;;6244338;23;20083;-83
2023/03/03 04:33:26;;;;;;;42.92;16.85;;;1.70;99.90;;;;;;6216952;23;20016;-84
2023/03/03 04:35:51;;;;;;;42.03;16.60;;;1.70;99.90;;;;;;6218228;23;20487;-84
2023/03/03 04:38:17;;;;;;;42.67;15.60;;;1.70;99.90;;;;;;6216863;23;20004;-83
2023/03/03 04:40:43;;;;;;;47.50;17.67;;;1.70;99.90;;;;;;6217081;23;20032;-84
2023/03/03 04:43:09;;;;;;;45.67;17.98;;;1.70;99.90;;;;;;6243768;23;20028;-84
2023/03/03 04:45:35;;;;;;;48.92;18.98;;;1.70;99.90;;;;;;6217796;23;19997;-84
2023/03/03 04:48:01;;;;;;;43.88;16.90;;;1.70;99.90;;;;;;6217258;23;20081;-84
2023/03/03 04:50:27;;;;;;;49.17;17.48;;;1.70;99.90;;;;;;6216628;23;20086;-85
2023/03/03 04:52:53;;;;;;;47.50;17.55;;;1.80;99.90;;;;;;6217525;23;20438;-84
2023/03/03 04:55:18;;;;;;;41.70;16.95;;;1.70;99.90;;;;;;6216975;23;20335;-84
2023/03/03 04:57:44;;;;;;;40.78;15.32;;;1.70;99.90;;;;;;6217373;23;20008;-84
2023/03/03 05:00:12;;;;;;;45.15;17.73;;;1.80;99.90;;;;;;6216538;23;20087;-84
2023/03/03 05:02:38;;;;;;;44.17;15.93;;;1.80;99.90;;;;;;6217129;23;20015;-84
2023/03/03 05:05:04;;;;;;;44.78;18.05;;;1.80;99.90;;;;;;6216717;23;20425;-84
2023/03/03 05:07:30;;;;;;;39.13;15.68;;;1.80;99.90;;;;;;6216726;23;20009;-84
2023/03/03 05:09:56;;;;;;;44.47;17.63;;;1.80;99.90;;;;;;6216730;23;20004;-84
2023/03/03 05:12:21;;;;;;;43.05;18.48;;;1.80;99.90;;;;;;6216833;23;20011;-84
2023/03/03 05:14:47;;;;;;;42.67;16.08;;;1.80;99.90;;;;;;6244082;23;20012;-84
2023/03/03 05:17:13;;;;;;;38.15;15.65;;;1.80;99.90;;;;;;6216548;23;20000;-84
2023/03/03 05:19:39;;;;;;;38.22;16.30;;;1.90;99.90;;;;;;6216526;23;20012;-84
2023/03/03 05:22:04;;;;;;;48.75;17.40;;;1.80;99.90;;;;;;6217184;23;20023;-84
2023/03/03 05:24:30;;;;;;;44.28;16.50;;;1.80;99.90;;;;;;6217520;23;20094;-84
2023/03/03 05:26:55;;;;;;;42.90;16.98;;;1.80;99.90;;;;;;6217386;23;20456;-84
2023/03/03 05:29:21;;;;;;;49.95;18.23;;;1.80;99.90;;;;;;6215829;23;20008;-84
2023/03/03 05:31:46;;;;;;;42.63;16.35;;;1.90;99.90;;;;;;6216515;23;20000;-85
2023/03/03 05:34:12;;;;;;;45.78;17.75;;;1.90;99.90;;;;;;6242965;23;20066;-84
2023/03/03 05:36:37;;;;;;;44.67;16.25;;;1.90;99.90;;;;;;6217485;23;20004;-84
2023/03/03 05:39:03;;;;;;;47.55;18.55;;;2.00;99.90;;;;;;6216081;23;20008;-84
2023/03/03 05:41:29;;;;;;;55.72;19.42;;;2.00;99.90;;;;;;6212972;23;20078;-85
2023/03/03 05:43:55;;;;;;;47.58;16.02;;;2.00;99.90;;;;;;6214452;23;20004;-84
2023/03/03 05:46:20;;;;;;;50.30;17.98;;;1.90;99.90;;;;;;6216069;23;20008;-84
2023/03/03 05:48:46;;;;;;;46.35;17.27;;;1.90;99.90;;;;;;6217365;23;20000;-85
2023/03/03 05:51:11;;;;;;;50.63;17.75;;;1.90;99.90;;;;;;6241007;23;20001;-84
2023/03/03 05:53:37;;;;;;;43.80;16.90;;;1.90;99.90;;;;;;6215658;23;20016;-84
2023/03/03 05:56:03;;;;;;;50.42;18.92;;;2.00;99.90;;;;;;6216650;23;20517;-84
2023/03/03 05:58:29;;;;;;;55.70;19.70;;;1.90;99.90;;;;;;6217008;23;20004;-85
2023/03/03 06:00:54;;;;;;;40.25;14.82;;;2.00;99.90;;;;;;6216369;23;20008;-86
2023/03/03 06:03:20;;;;;;;48.05;17.48;;;2.00;99.90;;;;;;6216770;23;20091;-86
2023/03/03 06:05:45;;;;;;;48.03;18.85;;;2.00;99.90;;;;;;6214952;23;20024;-85
2023/03/03 06:08:11;;;;;;;44.83;17.13;;;1.90;99.90;;;;;;6214524;23;20008;-86
2023/03/03 06:10:36;;;;;;;42.05;16.67;;;1.90;99.90;;;;;;6243375;23;20003;-85
2023/03/03 06:13:02;;;;;;;44.60;17.45;;;1.90;99.90;;;;;;6215336;23;20015;-86
2023/03/03 06:15:28;;;;;;;44.97;18.40;;;1.90;99.90;;;;;;6216256;23;20011;-86
2023/03/03 06:17:53;;;;;;;44.13;17.45;;;1.90;99.90;;;;;;6216777;23;20079;-86
2023/03/03 06:20:19;;;;;;;46.28;18.08;;;2.00;99.90;;;;;;6214847;23;20070;-86
2023/03/03 06:22:44;;;;;;;45.95;18.25;;;2.00;99.90;;;;;;6216326;23;20050;-86
2023/03/03 06:25:10;;;;;;;46.40;16.10;;;2.00;99.90;;;;;;6243329;23;20000;-86
2023/03/03 06:27:35;;;;;;;46.72;17.52;;;2.00;99.90;;;;;;6216098;23;20000;-86
2023/03/03 06:30:01;;;;;;;51.55;19.38;;;2.00;99.90;;;;;;6215554;23;20004;-86
2023/03/03 06:32:27;;;;;;;47.95;17.95;;;2.00;99.90;;;;;;6217868;23;20004;-86
2023/03/03 06:34:52;;;;;;;42.47;17.30;;;2.00;99.90;;;;;;6218471;23;20011;-86
2023/03/03 06:37:18;;;;;;;36.00;15.45;;;2.00;99.90;;;;;;6214513;22;20004;-86
2023/03/03 06:39:43;;;;;;;39.47;16.60;;;2.00;99.90;;;;;;6213083;23;20008;-86
2023/03/03 06:42:09;;;;;;;39.50;15.60;;;2.00;99.90;;;;;;6218585;23;20011;-86
2023/03/03 06:44:35;;;;;;;35.47;14.80;;;1.90;99.90;;;;;;6218971;23;20004;-86
2023/03/03 06:47:01;;;;;;;34.17;13.50;;;1.90;99.90;;;;;;6219377;23;20004;-85
2023/03/03 06:49:27;;;;;;;37.22;14.20;;;1.90;99.90;;;;;;6245078;23;20030;-85
2023/03/03 06:51:53;;;;;;;37.45;15.73;;;1.90;99.90;;;;;;6246159;23;20462;-86
2023/03/03 06:54:26;;;;;;;38.08;14.15;;;1.80;99.90;;;;;;6245856;23;20008;-86
2023/03/03 06:56:55;;;;;;;38.72;14.98;;;1.90;99.90;;;;;;6218072;23;20000;-85
2023/03/03 06:59:21;;;;;;;36.10;13.20;;;1.90;99.90;;;;;;6219130;23;20236;-85
2023/03/03 07:01:48;;;;;;;33.50;13.30;;;1.90;99.90;;;;;;6216768;23;20058;-86
2023/03/03 07:04:32;;;;;;;37.03;14.70;;;1.90;99.90;;;;;;6213823;23;20155;-86
2023/03/03 07:07:06;;;;;;;34.05;13.63;;;1.90;99.90;;;;;;6215117;23;20004;-86
2023/03/03 07:09:32;;;;;;;27.80;11.75;;;1.90;99.90;;;;;;6215643;23;20007;-86
2023/03/03 07:12:05;;;;;;;33.15;13.57;;;1.90;99.90;;;;;;6217339;23;20083;-86
2023/03/03 07:14:32;;;;;;;36.60;13.35;;;1.90;99.90;;;;;;6218859;23;20346;-85
2023/03/03 07:17:03;;;;;;;28.38;12.13;;;2.00;99.90;;;;;;6242505;23;20001;-86
2023/03/03 07:19:34;;;;;;;41.03;15.90;;;1.90;99.90;;;;;;6216395;23;20084;-86
2023/03/03 07:22:17;;;;;;;38.58;14.07;;;2.00;99.90;;;;;;6216932;23;20028;-86
2023/03/03 07:25:18;;;;;;;38.72;14.05;;;2.00;99.90;;;;;;6215683;23;20000;-86
2023/03/03 07:27:43;;;;;;;32.17;12.18;;;2.10;99.90;;;;;;6214264;23;20000;-86
2023/03/03 07:30:15;;;;;;;36.10;14.00;;;2.10;99.90;;;;;;6213894;22;20041;-86
2023/03/03 07:32:57;;;;;;;35.30;13.48;;;2.10;99.90;;;;;;6215186;23;20015;-86
2023/03/03 07:35:37;;;;;;;30.90;11.63;;;2.10;99.90;;;;;;6215403;23;20386;-85
2023/03/03 07:38:22;;;;;;;36.10;14.40;;;2.10;99.90;;;;;;6213395;23;20008;-85
2023/03/03 07:40:53;;;;;;;36.35;12.70;;;2.10;99.90;;;;;;6213487;23;20005;-86
2023/03/03 07:43:35;;;;;;;35.53;12.73;;;2.20;99.90;;;;;;6213653;22;20008;-86
2023/03/03 07:46:10;;;;;;;39.33;13.60;;;2.20;99.90;;;;;;6213511;23;20008;-86
2023/03/03 07:48:39;;;;;;;37.95;13.85;;;2.30;99.90;;;;;;6214362;23;20497;-86
2023/03/03 07:51:15;;;;;;;39.83;14.90;;;2.30;99.90;;;;;;6243778;23;20382;-85
2023/03/03 07:53:40;;;;;;;37.63;14.07;;;2.30;99.90;;;;;;6217749;23;20369;-86
2023/03/03 07:56:35;;;;;;;35.83;14.35;;;2.30;99.90;;;;;;6244752;22;20073;-85
2023/03/03 07:59:34;;;;;;;37.90;13.43;;;2.40;99.90;;;;;;6197327;23;20039;-85
2023/03/03 08:02:00;;;;;;;37.35;13.52;;;2.40;99.90;;;;;;6169725;23;20014;-83
2023/03/03 08:04:49;;;;;;;33.30;14.02;;;2.40;99.90;;;;;;6218565;23;20451;-84
2023/03/03 08:07:16;;;;;;;34.67;13.00;;;2.50;99.90;;;;;;6217656;23;20027;-85
2023/03/03 08:09:57;;;;;;;31.80;12.82;;;2.50;99.90;;;;;;6219117;23;20007;-84
2023/03/03 08:12:40;;;;;;;41.20;13.68;;;2.60;99.90;;;;;;6218351;23;20087;-84
2023/03/03 08:15:24;;;;;;;32.15;11.23;;;2.60;99.90;;;;;;6218431;23;20003;-84
2023/03/03 08:17:52;;;;;;;25.17;9.85;;;2.60;99.90;;;;;;6218481;23;20517;-84
2023/03/03 08:20:40;;;;;;;25.55;10.88;;;2.60;99.90;;;;;;6218347;23;20031;-85
2023/03/03 08:23:06;;;;;;;26.75;10.10;;;2.70;99.90;;;;;;6218609;23;20081;-84
2023/03/03 08:25:31;;;;;;;22.35;8.32;;;2.70;99.90;;;;;;6218979;23;20068;-84
2023/03/03 08:27:57;;;;;;;20.27;7.75;;;2.70;99.90;;;;;;6245945;23;20010;-84
2023/03/03 08:30:22;;;;;;;18.08;7.60;;;2.70;99.90;;;;;;6218998;23;20155;-84
2023/03/03 08:32:48;;;;;;;22.38;8.27;;;2.80;99.90;;;;;;6245947;23;20072;-84
2023/03/03 08:35:13;;;;;;;25.98;9.23;;;2.80;99.90;;;;;;6218287;23;20012;-84
2023/03/03 08:37:39;;;;;;;18.80;6.88;;;2.90;99.90;;;;;;6219620;23;20087;-83
2023/03/03 08:40:05;;;;;;;22.27;8.88;;;3.00;99.90;;;;;;6245209;23;20004;-84
2023/03/03 08:42:30;;;;;;;22.02;9.07;;;3.00;99.90;;;;;;6218374;23;20000;-85
2023/03/03 08:44:56;;;;;;;21.02;8.05;;;3.10;99.90;;;;;;6217265;23;20331;-84
2023/03/03 08:47:21;;;;;;;20.77;8.40;;;3.20;99.90;;;;;;6218254;23;20001;-84
2023/03/03 08:49:47;;;;;;;19.02;7.95;;;3.10;99.90;;;;;;6218505;23;20003;-84
2023/03/03 08:52:12;;;;;;;18.75;7.65;;;3.10;99.90;;;;;;6218367;23;20015;-84
2023/03/03 08:54:38;;;;;;;19.58;7.70;;;3.10;99.90;;;;;;6218337;23;20079;-84
2023/03/03 08:57:03;;;;;;;20.13;7.88;;;3.10;99.90;;;;;;6217997;23;20376;-83
2023/03/03 08:59:29;;;;;;;19.30;7.88;;;3.10;99.90;;;;;;6218718;23;20365;-84
2023/03/03 09:01:54;;;;;;;19.33;7.65;;;3.20;99.90;;;;;;6218067;23;20000;-85
2023/03/03 09:04:20;;;;;;;17.63;7.68;;;3.20;99.90;;;;;;6245240;23;20401;-84
2023/03/03 09:06:45;;;;;;;23.15;9.63;;;3.30;99.90;;;;;;6219141;23;20020;-84
2023/03/03 09:09:11;;;;;;;23.02;8.68;;;3.30;99.90;;;;;;6218870;23;20043;-84
2023/03/03 09:11:37;;;;;;;22.83;9.10;;;3.40;99.90;;;;;;6218547;23;20000;-84
2023/03/03 09:14:10;;;;;;;23.00;9.40;;;3.40;99.90;;;;;;6218540;23;20443;-84
2023/03/03 09:16:44;;;;;;;21.85;8.52;;;3.40;99.90;;;;;;6245452;23;20031;-84
2023/03/03 09:19:26;;;;;;;22.08;8.80;;;3.40;99.90;;;;;;6245222;23;20002;-84
2023/03/03 09:21:53;;;;;;;24.58;9.70;;;3.50;99.90;;;;;;6245404;23;20385;-84
2023/03/03 09:24:28;;;;;;;20.33;8.55;;;3.50;99.90;;;;;;6218083;23;20004;-84
2023/03/03 09:26:54;;;;;;;22.25;9.20;;;3.60;99.90;;;;;;6219006;23;20465;-84
2023/03/03 09:29:26;;;;;;;18.08;8.52;;;3.60;99.90;;;;;;6245106;23;20000;-84
2023/03/03 09:31:53;;;;;;;18.08;6.95;;;3.70;99.90;;;;;;6218952;23;20074;-84
2023/03/03 09:34:29;;;;;;;16.60;7.40;;;3.70;99.90;;;;;;6218379;23;20484;-84
2023/03/03 09:36:56;;;;;;;17.85;6.63;;;3.80;99.90;;;;;;6218979;23;20005;-84
2023/03/03 09:39:28;;;;;;;15.23;6.55;;;3.80;99.90;;;;;;6218157;23;20004;-84
2023/03/03 09:42:05;;;;;;;14.05;6.32;;;3.80;99.90;;;;;;6217616;23;20008;-84
2023/03/03 09:44:49;;;;;;;13.27;5.70;;;3.90;99.90;;;;;;6217069;23;20008;-84
2023/03/03 09:47:33;;;;;;;11.95;4.88;;;4.00;99.90;;;;;;6217734;23;20022;-84
2023/03/03 09:50:17;;;;;;;12.70;5.72;;;4.10;99.90;;;;;;6218760;23;20008;-84
2023/03/03 09:53:18;;;;;;;12.30;5.15;;;4.10;99.90;;;;;;6218201;23;20019;-84
2023/03/03 09:55:58;;;;;;;11.55;5.00;;;4.20;99.90;;;;;;6245417;22;20003;-84
2023/03/03 09:59:08;;;;;;;13.98;5.97;;;4.20;99.90;;;;;;6217365;23;20449;-84
2023/03/03 10:01:49;;;;;;;15.48;5.05;;;4.30;99.90;;;;;;6218142;23;20024;-84
2023/03/03 10:04:37;;;;;;;15.13;6.32;;;4.40;99.90;;;;;;6244367;23;20443;-84
2023/03/03 10:07:21;;;;;;;13.27;5.47;;;4.50;99.90;;;;;;6219407;23;20006;-84
2023/03/03 10:10:05;;;;;;;11.23;5.10;;;4.60;99.90;;;;;;6218271;23;20004;-84
2023/03/03 10:12:42;;;;;;;12.93;5.15;;;4.70;99.90;;;;;;6218468;23;20012;-84
2023/03/03 10:15:26;;;;;;;10.07;5.30;;;4.80;99.90;;;;;;6219855;23;20000;-84
2023/03/03 10:18:11;;;;;;;12.63;5.63;;;4.90;99.90;;;;;;6247649;23;20100;-84
2023/03/03 10:21:00;;;;;;;12.05;5.07;;;4.80;99.90;;;;;;6218494;23;20386;-84
2023/03/03 10:23:49;;;;;;;14.02;5.70;;;4.70;99.90;;;;;;6220030;23;20001;-84
2023/03/03 10:26:36;;;;;;;11.38;5.00;;;4.80;99.90;;;;;;6219576;23;20027;-84
2023/03/03 10:29:21;;;;;;;12.68;5.10;;;4.90;99.90;;;;;;6245707;23;19996;-84
2023/03/03 10:32:17;;;;;;;12.93;4.57;;;5.20;99.90;;;;;;6219823;23;20011;-87
2023/03/03 10:34:58;;;;;;;10.20;4.93;;;5.40;99.90;;;;;;6219809;23;20016;-83
2023/03/03 10:37:49;;;;;;;15.10;6.05;;;5.60;99.90;;;;;;6219323;23;20342;-84
2023/03/03 10:40:31;;;;;;;10.50;5.25;;;5.80;99.90;;;;;;6208549;23;20000;-84
2023/03/03 10:43:24;;;;;;;9.68;4.60;;;6.00;99.90;;;;;;6217974;23;20054;-84
2023/03/03 10:46:08;;;;;;;10.52;5.65;;;6.10;99.90;;;;;;6217684;23;20094;-83
2023/03/03 10:48:59;;;;;;;13.85;5.88;;;6.20;99.90;;;;;;6219026;23;20434;-83
2023/03/03 10:51:39;;;;;;;12.45;5.45;;;6.20;99.90;;;;;;6218672;23;19997;-84
2023/03/03 10:54:29;;;;;;;10.57;4.35;;;6.30;99.90;;;;;;6218797;23;20050;-84
2023/03/03 10:57:11;;;;;;;13.88;5.15;;;6.40;99.90;;;;;;6245856;23;20464;-84
2023/03/03 10:59:59;;;;;;;8.85;4.78;;;6.50;99.90;;;;;;6218556;23;20430;-84
2023/03/03 11:02:41;;;;;;;12.25;5.13;;;6.70;99.90;;;;;;6218008;23;20050;-84
2023/03/03 11:05:22;;;;;;;12.10;5.28;;;6.90;99.90;;;;;;6218763;23;20039;-84
2023/03/03 11:07:57;;;;;;;11.95;5.10;;;7.00;99.90;;;;;;6219402;23;20008;-84
2023/03/03 11:10:47;;;;;;;11.00;4.82;;;7.20;99.90;;;;;;6217830;23;20008;-84
2023/03/03 11:13:37;;;;;;;9.80;4.30;;;7.30;99.90;;;;;;6244576;23;20088;-84
2023/03/03 11:16:34;;;;;;;9.10;4.43;;;7.40;99.90;;;;;;6218719;23;20442;-83
2023/03/03 11:19:16;;;;;;;8.27;4.05;;;7.40;99.90;;;;;;6244429;23;20395;-84
2023/03/03 11:21:54;;;;;;;8.77;3.53;;;7.30;99.90;;;;;;6214145;23;20012;-83
2023/03/03 11:24:32;;;;;;;7.32;3.83;;;7.20;99.90;;;;;;6187445;23;20359;-84
2023/03/03 11:27:22;;;;;;;8.70;4.05;;;7.20;99.90;;;;;;6187948;23;20431;-84
2023/03/03 11:30:03;;;;;;;7.53;3.28;;;7.20;99.90;;;;;;6188681;23;20316;-83
2023/03/03 11:32:37;;;;;;;7.47;3.57;;;7.20;99.90;;;;;;6214181;23;20001;-84
2023/03/03 11:35:21;;;;;;;8.10;3.63;;;7.30;99.90;;;;;;6187302;23;20275;-83
2023/03/03 11:37:58;;;;;;;10.98;3.67;;;7.40;99.90;;;;;;6188564;23;20008;-84
2023/03/03 11:40:37;;;;;;;9.85;3.67;;;7.50;99.90;;;;;;6188745;23;20011;-84
2023/03/03 11:43:14;;;;;;;8.70;3.53;;;7.60;99.90;;;;;;6187429;23;20046;-84
2023/03/03 11:45:50;;;;;;;7.28;3.58;;;7.60;99.90;;;;;;6214567;23;19996;-84
2023/03/03 11:48:38;;;;;;;6.53;3.17;;;7.60;99.90;;;;;;6185152;23;20054;-84
2023/03/03 11:51:31;;;;;;;7.18;2.90;;;7.60;99.90;;;;;;6186980;23;20004;-84
2023/03/03 11:54:34;;;;;;;7.55;3.15;;;7.60;99.90;;;;;;6187526;23;20012;-84
2023/03/03 11:57:39;;;;;;;5.85;3.05;;;7.50;99.90;;;;;;6187914;23;20001;-84
2023/03/03 12:00:31;;;;;;;8.23;3.38;;;7.50;99.90;;;;;;6187616;23;20087;-83
2023/03/03 12:03:20;;;;;;;9.88;3.40;;;7.60;99.90;;;;;;6188210;23;20001;-84
2023/03/03 12:06:07;;;;;;;7.72;3.22;;;7.60;99.90;;;;;;6215061;23;20036;-84
2023/03/03 12:09:02;;;;;;;8.95;3.50;;;7.60;99.90;;;;;;6188855;23;20083;-85
2023/03/03 12:11:45;;;;;;;8.45;3.20;;;7.70;99.90;;;;;;6188619;23;20454;-84
2023/03/03 12:14:47;;;;;;;5.82;2.80;;;7.80;99.90;;;;;;6187659;23;20017;-84
2023/03/03 12:17:16;;;;;;;5.68;2.75;;;7.80;99.90;;;;;;6208722;23;20347;-84
2023/03/03 12:20:09;;;;;;;6.32;2.45;;;7.70;99.90;;;;;;6220808;23;20016;-84
2023/03/03 12:22:56;;;;;;;5.97;2.92;;;7.60;99.90;;;;;;6245309;23;20074;-84
2023/03/03 12:25:36;;;;;;;5.13;2.65;;;7.70;99.90;;;;;;6217615;23;20101;-84
2023/03/03 12:28:09;;;;;;;6.22;3.10;;;7.60;99.90;;;;;;6218002;23;20527;-85
2023/03/03 12:31:01;;;;;;;5.20;2.78;;;7.70;99.90;;;;;;6218162;23;20530;-85
2023/03/03 12:33:51;;;;;;;6.32;3.00;;;7.80;99.90;;;;;;6211270;23;20458;-85
2023/03/03 12:36:29;;;;;;;11.05;2.95;;;7.90;99.90;;;;;;6217876;23;20008;-85
2023/03/03 12:39:21;;;;;;;7.60;3.72;;;8.10;99.90;;;;;;6217802;23;20000;-85
2023/03/03 12:42:00;;;;;;;5.53;2.30;;;8.10;99.90;;;;;;6218037;23;20083;-85
2023/03/03 12:44:54;;;;;;;7.57;3.05;;;8.20;99.90;;;;;;6217884;23;20005;-85
2023/03/03 12:47:44;;;;;;;7.00;2.72;;;8.20;99.90;;;;;;6217764;23;20007;-86
2023/03/03 12:50:28;;;;;;;5.50;2.42;;;8.40;99.90;;;;;;6217378;23;20008;-85
2023/03/03 12:53:30;;;;;;;12.30;2.60;;;8.40;99.90;;;;;;6218171;23;20011;-86
2023/03/03 12:56:12;;;;;;;5.40;2.03;;;8.40;99.90;;;;;;6218266;23;20496;-86
2023/03/03 12:59:03;;;;;;;3.55;1.58;;;8.40;99.90;;;;;;6243651;23;20086;-86
2023/03/03 13:02:06;;;;;;;5.90;1.65;;;8.40;99.90;;;;;;6217439;23;20341;-86
2023/03/03 13:04:32;;;;;;;;;;;8.30;99.90;;;;;;6217874;23;20083;-86
2023/03/03 13:07:12;;;;;;;3.70;1.67;;;8.30;99.90;;;;;;6217334;23;19927;-86
2023/03/03 13:10:02;;;;;;;5.50;1.92;;;8.40;99.90;;;;;;6218146;23;20014;-85
2023/03/03 13:12:34;;;;;;;7.70;2.30;;;8.60;99.90;;;;;;6217882;23;20012;-86
2023/03/03 13:15:23;;;;;;;5.43;1.67;;;8.70;99.90;;;;;;6244657;23;20222;-86